sensor_id;sensor_type;location;lat;lon;timestamp;P1;durP1;ratioP1;P2;durP2;ratioP2
10440;SDS011;5268;49.346;9.522;2023-04-16T03:05:59;3.40;;;3.05;;
10440;SDS011;5268;49.346;9.522;2023-04-16T03:11:01;7.47;;;6.68;;
10440;SDS011;5268;49.346;9.522;2023-04-16T03:16:03;4.65;;;4.20;;
10440;SDS011;5268;49.346;9.522;2023-04-16T03:21:07;4.03;;;3.63;;
10440;SDS011;5268;49.346;9.522;2023-04-16T03:26:09;4.30;;;3.63;;
10440;SDS011;5268;49.346;9.522;2023-04-16T03:31:10;4.95;;;4.20;;
10440;SDS011;5268;49.346;9.522;2023-04-16T03:36:14;5.95;;;4.50;;
10440;SDS011;5268;49.346;9.522;2023-04-16T03:41:16;5.78;;;4.53;;
10440;SDS011;5268;49.346;9.522;2023-04-16T03:46:18;6.57;;;4.70;;
10440;SDS011;5268;49.346;9.522;2023-04-16T03:51:21;5.57;;;4.97;;
10440;SDS011;5268;49.346;9.522;2023-04-16T03:56:23;6.43;;;5.28;;
10440;SDS011;5268;49.346;9.522;2023-04-16T04:01:25;6.28;;;5.35;;
10440;SDS011;5268;49.346;9.522;2023-04-16T04:06:29;7.22;;;6.13;;
10440;SDS011;5268;49.346;9.522;2023-04-16T04:11:31;8.80;;;6.97;;
10440;SDS011;5268;49.346;9.522;2023-04-16T04:16:33;7.78;;;6.35;;
10440;SDS011;5268;49.346;9.522;2023-04-16T04:21:37;9.40;;;7.28;;
10440;SDS011;5268;49.346;9.522;2023-04-16T04:26:39;8.90;;;7.10;;
10440;SDS011;5268;49.346;9.522;2023-04-16T04:31:41;8.93;;;7.15;;
10440;SDS011;5268;49.346;9.522;2023-04-16T04:36:44;8.93;;;7.68;;
10440;SDS011;5268;49.346;9.522;2023-04-16T04:41:46;12.75;;;9.75;;
10440;SDS011;5268;49.346;9.522;2023-04-16T04:46:48;12.45;;;9.82;;
10440;SDS011;5268;49.346;9.522;2023-04-16T04:51:51;13.85;;;10.05;;
10440;SDS011;5268;49.346;9.522;2023-04-16T04:56:53;12.88;;;10.13;;
10440;SDS011;5268;49.346;9.522;2023-04-16T05:01:55;13.93;;;10.20;;
10440;SDS011;5268;49.346;9.522;2023-04-16T05:06:59;13.63;;;9.68;;
10440;SDS011;5268;49.346;9.522;2023-04-16T05:12:02;13.85;;;10.77;;
10440;SDS011;5268;49.346;9.522;2023-04-16T05:17:04;16.77;;;10.90;;
10440;SDS011;5268;49.346;9.522;2023-04-16T05:22:08;13.48;;;10.70;;
10440;SDS011;5268;49.346;9.522;2023-04-16T05:27:10;15.43;;;11.43;;
10440;SDS011;5268;49.346;9.522;2023-04-16T05:32:12;15.18;;;11.57;;
10440;SDS011;5268;49.346;9.522;2023-04-16T05:37:15;12.55;;;10.45;;
10440;SDS011;5268;49.346;9.522;2023-04-16T05:42:17;12.20;;;10.02;;
10440;SDS011;5268;49.346;9.522;2023-04-16T05:47:19;13.82;;;10.88;;
10440;SDS011;5268;49.346;9.522;2023-04-16T05:52:23;15.23;;;11.48;;
10440;SDS011;5268;49.346;9.522;2023-04-16T05:57:25;14.77;;;11.50;;
10440;SDS011;5268;49.346;9.522;2023-04-16T06:02:27;11.23;;;9.70;;
10440;SDS011;5268;49.346;9.522;2023-04-16T06:07:31;14.13;;;10.63;;
10440;SDS011;5268;49.346;9.522;2023-04-16T06:12:33;11.85;;;9.95;;
10440;SDS011;5268;49.346;9.522;2023-04-16T06:17:35;13.65;;;11.13;;
10440;SDS011;5268;49.346;9.522;2023-04-16T06:22:39;13.57;;;11.00;;
10440;SDS011;5268;49.346;9.522;2023-04-16T06:27:42;12.45;;;10.13;;
10440;SDS011;5268;49.346;9.522;2023-04-16T06:32:47;14.15;;;11.05;;
10440;SDS011;5268;49.346;9.522;2023-04-16T06:37:52;13.60;;;9.80;;
10440;SDS011;5268;49.346;9.522;2023-04-16T06:42:54;11.85;;;9.75;;
10440;SDS011;5268;49.346;9.522;2023-04-16T06:47:57;12.93;;;10.80;;
10440;SDS011;5268;49.346;9.522;2023-04-16T06:53:01;13.02;;;10.68;;
10440;SDS011;5268;49.346;9.522;2023-04-16T06:58:03;11.77;;;9.90;;
10440;SDS011;5268;49.346;9.522;2023-04-16T07:03:06;12.82;;;10.15;;
10440;SDS011;5268;49.346;9.522;2023-04-16T07:08:10;12.93;;;10.38;;
10440;SDS011;5268;49.346;9.522;2023-04-16T07:13:12;16.58;;;12.45;;
10440;SDS011;5268;49.346;9.522;2023-04-16T07:18:14;11.77;;;9.15;;
10440;SDS011;5268;49.346;9.522;2023-04-16T07:23:19;11.50;;;9.00;;
10440;SDS011;5268;49.346;9.522;2023-04-16T07:28:21;10.50;;;8.60;;
10440;SDS011;5268;49.346;9.522;2023-04-16T07:33:25;13.45;;;9.00;;
10440;SDS011;5268;49.346;9.522;2023-04-16T07:38:29;10.48;;;8.38;;
10440;SDS011;5268;49.346;9.522;2023-04-16T07:43:33;11.05;;;8.65;;
10440;SDS011;5268;49.346;9.522;2023-04-16T07:48:37;9.50;;;8.18;;
10440;SDS011;5268;49.346;9.522;2023-04-16T07:53:40;9.35;;;7.60;;
10440;SDS011;5268;49.346;9.522;2023-04-16T07:58:43;8.68;;;7.32;;
10440;SDS011;5268;49.346;9.522;2023-04-16T08:03:45;9.10;;;7.00;;
10440;SDS011;5268;49.346;9.522;2023-04-16T08:08:48;9.20;;;7.30;;
10440;SDS011;5268;49.346;9.522;2023-04-16T08:13:50;7.07;;;6.35;;
10440;SDS011;5268;49.346;9.522;2023-04-16T08:18:52;7.38;;;6.35;;
10440;SDS011;5268;49.346;9.522;2023-04-16T08:23:56;8.35;;;6.30;;
10440;SDS011;5268;49.346;9.522;2023-04-16T08:28:58;7.70;;;6.47;;
10440;SDS011;5268;49.346;9.522;2023-04-16T08:34:00;6.85;;;5.85;;
10440;SDS011;5268;49.346;9.522;2023-04-16T08:39:04;8.45;;;7.15;;
10440;SDS011;5268;49.346;9.522;2023-04-16T08:44:07;6.80;;;6.10;;
10440;SDS011;5268;49.346;9.522;2023-04-16T08:49:10;7.70;;;5.88;;
10440;SDS011;5268;49.346;9.522;2023-04-16T08:54:20;7.30;;;5.22;;
10440;SDS011;5268;49.346;9.522;2023-04-16T08:59:31;7.10;;;5.47;;
10440;SDS011;5268;49.346;9.522;2023-04-16T09:04:34;7.57;;;5.78;;
10440;SDS011;5268;49.346;9.522;2023-04-16T09:09:39;6.97;;;6.00;;
10440;SDS011;5268;49.346;9.522;2023-04-16T09:14:45;7.90;;;6.10;;
10440;SDS011;5268;49.346;9.522;2023-04-16T09:19:49;10.15;;;7.50;;
10440;SDS011;5268;49.346;9.522;2023-04-16T09:24:53;10.65;;;6.75;;
10440;SDS011;5268;49.346;9.522;2023-04-16T09:29:55;19.58;;;12.45;;
10440;SDS011;5268;49.346;9.522;2023-04-16T09:34:57;8.77;;;6.63;;
10440;SDS011;5268;49.346;9.522;2023-04-16T09:40:02;7.40;;;6.15;;
10440;SDS011;5268;49.346;9.522;2023-04-16T09:45:08;6.22;;;4.90;;
10440;SDS011;5268;49.346;9.522;2023-04-16T09:50:13;5.00;;;4.47;;
10440;SDS011;5268;49.346;9.522;2023-04-16T09:55:22;4.68;;;4.18;;
10440;SDS011;5268;49.346;9.522;2023-04-16T10:00:28;4.35;;;3.95;;
10440;SDS011;5268;49.346;9.522;2023-04-16T10:05:31;5.35;;;4.43;;
10440;SDS011;5268;49.346;9.522;2023-04-16T10:10:34;5.85;;;4.53;;
10440;SDS011;5268;49.346;9.522;2023-04-16T10:15:36;5.55;;;4.40;;
10440;SDS011;5268;49.346;9.522;2023-04-16T10:20:39;5.50;;;4.60;;
10440;SDS011;5268;49.346;9.522;2023-04-16T10:25:43;5.20;;;4.70;;
10440;SDS011;5268;49.346;9.522;2023-04-16T10:30:46;5.07;;;3.92;;
10440;SDS011;5268;49.346;9.522;2023-04-16T10:36:05;4.32;;;3.83;;
10440;SDS011;5268;49.346;9.522;2023-04-16T10:41:10;6.85;;;5.63;;
10440;SDS011;5268;49.346;9.522;2023-04-16T10:46:18;4.57;;;3.78;;
10440;SDS011;5268;49.346;9.522;2023-04-16T10:51:24;5.90;;;5.13;;
10440;SDS011;5268;49.346;9.522;2023-04-16T10:56:32;5.15;;;4.25;;
10440;SDS011;5268;49.346;9.522;2023-04-16T11:01:35;4.78;;;4.28;;
10440;SDS011;5268;49.346;9.522;2023-04-16T11:06:41;4.97;;;4.30;;
10440;SDS011;5268;49.346;9.522;2023-04-16T11:12:03;19.30;;;10.35;;
10440;SDS011;5268;49.346;9.522;2023-04-16T11:17:12;6.45;;;5.20;;
10440;SDS011;5268;49.346;9.522;2023-04-16T11:22:15;6.32;;;5.53;;
10440;SDS011;5268;49.346;9.522;2023-04-16T11:27:19;5.05;;;4.55;;
10440;SDS011;5268;49.346;9.522;2023-04-16T11:32:21;5.53;;;4.90;;
10440;SDS011;5268;49.346;9.522;2023-04-16T11:37:30;5.00;;;4.50;;
10440;SDS011;5268;49.346;9.522;2023-04-16T11:42:35;5.68;;;4.57;;
10440;SDS011;5268;49.346;9.522;2023-04-16T11:47:42;5.93;;;4.57;;
10440;SDS011;5268;49.346;9.522;2023-04-16T11:52:46;5.80;;;5.15;;
10440;SDS011;5268;49.346;9.522;2023-04-16T11:57:50;5.80;;;4.97;;
10440;SDS011;5268;49.346;9.522;2023-04-16T12:02:52;4.57;;;4.18;;
10440;SDS011;5268;49.346;9.522;2023-04-16T12:07:54;7.25;;;5.55;;
10440;SDS011;5268;49.346;9.522;2023-04-16T12:13:09;4.70;;;4.20;;
10440;SDS011;5268;49.346;9.522;2023-04-16T12:18:12;4.57;;;4.13;;
10440;SDS011;5268;49.346;9.522;2023-04-16T12:23:21;4.50;;;4.10;;
10440;SDS011;5268;49.346;9.522;2023-04-16T12:28:30;4.65;;;4.20;;
10440;SDS011;5268;49.346;9.522;2023-04-16T12:33:33;4.05;;;3.65;;
10440;SDS011;5268;49.346;9.522;2023-04-16T12:38:35;4.53;;;4.13;;
10440;SDS011;5268;49.346;9.522;2023-04-16T12:43:38;4.60;;;4.05;;
10440;SDS011;5268;49.346;9.522;2023-04-16T12:48:40;4.72;;;4.28;;
10440;SDS011;5268;49.346;9.522;2023-04-16T12:53:42;5.05;;;4.55;;
10440;SDS011;5268;49.346;9.522;2023-04-16T12:58:46;8.32;;;6.38;;
10440;SDS011;5268;49.346;9.522;2023-04-16T13:03:50;6.93;;;5.20;;
10440;SDS011;5268;49.346;9.522;2023-04-16T13:08:52;6.78;;;5.72;;
10440;SDS011;5268;49.346;9.522;2023-04-16T13:13:56;7.90;;;6.30;;
10440;SDS011;5268;49.346;9.522;2023-04-16T13:18:58;6.35;;;5.72;;
10440;SDS011;5268;49.346;9.522;2023-04-16T13:24:00;8.40;;;6.07;;
10440;SDS011;5268;49.346;9.522;2023-04-16T13:29:03;10.25;;;7.75;;
10440;SDS011;5268;49.346;9.522;2023-04-16T13:34:05;13.93;;;12.52;;
10440;SDS011;5268;49.346;9.522;2023-04-16T13:39:07;7.55;;;6.75;;
10440;SDS011;5268;49.346;9.522;2023-04-16T13:44:12;7.50;;;6.80;;
10440;SDS011;5268;49.346;9.522;2023-04-16T13:49:14;7.88;;;7.07;;
10440;SDS011;5268;49.346;9.522;2023-04-16T13:54:16;7.50;;;6.70;;
10440;SDS011;5268;49.346;9.522;2023-04-16T13:59:19;8.52;;;7.18;;
10440;SDS011;5268;49.346;9.522;2023-04-16T14:04:21;8.60;;;7.55;;
10440;SDS011;5268;49.346;9.522;2023-04-16T14:09:23;9.57;;;7.70;;
10440;SDS011;5268;49.346;9.522;2023-04-16T14:14:27;9.27;;;7.50;;
10440;SDS011;5268;49.346;9.522;2023-04-16T14:19:30;8.80;;;7.88;;
10440;SDS011;5268;49.346;9.522;2023-04-16T14:24:32;9.23;;;7.35;;
10440;SDS011;5268;49.346;9.522;2023-04-16T14:29:35;8.13;;;7.30;;
10440;SDS011;5268;49.346;9.522;2023-04-16T14:34:38;9.10;;;8.10;;
10440;SDS011;5268;49.346;9.522;2023-04-16T14:39:40;10.57;;;9.05;;
10440;SDS011;5268;49.346;9.522;2023-04-16T14:44:43;12.65;;;9.52;;
10440;SDS011;5268;49.346;9.522;2023-04-16T14:49:45;10.57;;;9.30;;
10440;SDS011;5268;49.346;9.522;2023-04-16T14:54:47;11.07;;;9.68;;
10440;SDS011;5268;49.346;9.522;2023-04-16T14:59:51;10.18;;;8.57;;
10440;SDS011;5268;49.346;9.522;2023-04-16T15:04:53;9.23;;;8.23;;
10440;SDS011;5268;49.346;9.522;2023-04-16T15:09:55;9.82;;;7.95;;
10440;SDS011;5268;49.346;9.522;2023-04-16T15:14:59;8.60;;;7.40;;
10440;SDS011;5268;49.346;9.522;2023-04-16T15:20:01;10.18;;;8.60;;
10440;SDS011;5268;49.346;9.522;2023-04-16T15:25:05;7.55;;;6.80;;
10440;SDS011;5268;49.346;9.522;2023-04-16T15:30:10;9.43;;;7.45;;
10440;SDS011;5268;49.346;9.522;2023-04-16T15:35:12;8.70;;;7.35;;
10440;SDS011;5268;49.346;9.522;2023-04-16T15:40:14;9.00;;;7.13;;
10440;SDS011;5268;49.346;9.522;2023-04-16T15:45:19;8.32;;;7.43;;
10440;SDS011;5268;49.346;9.522;2023-04-16T15:50:21;8.40;;;7.50;;
10440;SDS011;5268;49.346;9.522;2023-04-16T15:55:25;9.60;;;8.18;;
10440;SDS011;5268;49.346;9.522;2023-04-16T16:00:28;9.20;;;8.13;;
10440;SDS011;5268;49.346;9.522;2023-04-16T16:05:32;11.45;;;9.32;;
10440;SDS011;5268;49.346;9.522;2023-04-16T16:10:34;8.98;;;7.80;;
10440;SDS011;5268;49.346;9.522;2023-04-16T16:15:37;6.90;;;6.20;;
10440;SDS011;5268;49.346;9.522;2023-04-16T16:20:39;7.93;;;7.13;;
10440;SDS011;5268;49.346;9.522;2023-04-16T16:25:41;6.28;;;5.68;;
10440;SDS011;5268;49.346;9.522;2023-04-16T16:30:45;5.45;;;4.95;;
10440;SDS011;5268;49.346;9.522;2023-04-16T16:35:47;5.10;;;4.60;;
10440;SDS011;5268;49.346;9.522;2023-04-16T16:40:49;5.03;;;4.50;;
10440;SDS011;5268;49.346;9.522;2023-04-16T16:45:52;6.65;;;4.35;;
10440;SDS011;5268;49.346;9.522;2023-04-16T16:50:54;4.63;;;4.20;;
10440;SDS011;5268;49.346;9.522;2023-04-16T16:55:56;5.30;;;4.07;;
10440;SDS011;5268;49.346;9.522;2023-04-16T17:01:00;4.03;;;3.60;;
10440;SDS011;5268;49.346;9.522;2023-04-16T17:06:02;5.32;;;4.82;;
10440;SDS011;5268;49.346;9.522;2023-04-16T17:11:04;4.13;;;3.72;;
10440;SDS011;5268;49.346;9.522;2023-04-16T17:16:08;4.10;;;3.70;;
10440;SDS011;5268;49.346;9.522;2023-04-16T17:21:12;4.30;;;3.90;;
10440;SDS011;5268;49.346;9.522;2023-04-16T17:26:14;4.68;;;4.05;;
10440;SDS011;5268;49.346;9.522;2023-04-16T17:31:17;4.32;;;3.92;;
10440;SDS011;5268;49.346;9.522;2023-04-16T17:36:19;5.13;;;3.88;;
10440;SDS011;5268;49.346;9.522;2023-04-16T17:41:22;4.32;;;3.92;;
10440;SDS011;5268;49.346;9.522;2023-04-16T17:46:25;4.95;;;4.45;;
10440;SDS011;5268;49.346;9.522;2023-04-16T17:51:27;4.60;;;4.20;;
10440;SDS011;5268;49.346;9.522;2023-04-16T17:56:30;5.00;;;4.30;;
10440;SDS011;5268;49.346;9.522;2023-04-16T18:01:33;5.20;;;4.35;;
10440;SDS011;5268;49.346;9.522;2023-04-16T18:06:35;4.55;;;4.10;;
10440;SDS011;5268;49.346;9.522;2023-04-16T18:11:37;4.65;;;3.75;;
10440;SDS011;5268;49.346;9.522;2023-04-16T18:16:40;4.75;;;4.25;;
10440;SDS011;5268;49.346;9.522;2023-04-16T18:21:42;4.20;;;3.80;;
10440;SDS011;5268;49.346;9.522;2023-04-16T18:26:45;4.30;;;3.90;;
10440;SDS011;5268;49.346;9.522;2023-04-16T18:31:48;4.68;;;4.28;;
10440;SDS011;5268;49.346;9.522;2023-04-16T18:36:50;4.60;;;4.15;;
10440;SDS011;5268;49.346;9.522;2023-04-16T18:41:52;5.35;;;4.70;;
10440;SDS011;5268;49.346;9.522;2023-04-16T18:46:56;4.63;;;3.80;;
10440;SDS011;5268;49.346;9.522;2023-04-16T18:51:58;4.20;;;3.80;;
10440;SDS011;5268;49.346;9.522;2023-04-16T18:57:00;4.50;;;4.10;;
10440;SDS011;5268;49.346;9.522;2023-04-16T19:02:04;5.05;;;4.55;;
10440;SDS011;5268;49.346;9.522;2023-04-16T19:07:07;5.20;;;4.70;;
10440;SDS011;5268;49.346;9.522;2023-04-16T19:12:09;4.78;;;4.28;;
10440;SDS011;5268;49.346;9.522;2023-04-16T19:17:12;4.93;;;4.40;;
10440;SDS011;5268;49.346;9.522;2023-04-16T19:22:14;4.95;;;4.20;;
10440;SDS011;5268;49.346;9.522;2023-04-16T19:27:16;5.60;;;4.85;;
10440;SDS011;5268;49.346;9.522;2023-04-16T19:32:19;6.43;;;5.82;;
10440;SDS011;5268;49.346;9.522;2023-04-16T19:37:21;13.60;;;10.35;;
10440;SDS011;5268;49.346;9.522;2023-04-16T19:42:23;8.23;;;6.97;;
10440;SDS011;5268;49.346;9.522;2023-04-16T19:47:27;6.00;;;5.40;;
10440;SDS011;5268;49.346;9.522;2023-04-16T19:52:29;6.00;;;5.40;;
10440;SDS011;5268;49.346;9.522;2023-04-16T19:57:36;7.13;;;6.28;;
10440;SDS011;5268;49.346;9.522;2023-04-16T20:02:39;6.43;;;5.65;;
10440;SDS011;5268;49.346;9.522;2023-04-16T20:07:41;6.03;;;5.22;;
10440;SDS011;5268;49.346;9.522;2023-04-16T20:12:43;6.40;;;5.55;;
10440;SDS011;5268;49.346;9.522;2023-04-16T20:17:46;5.78;;;5.18;;
10440;SDS011;5268;49.346;9.522;2023-04-16T20:22:48;6.70;;;5.80;;
10440;SDS011;5268;49.346;9.522;2023-04-16T20:27:50;6.43;;;5.68;;
10440;SDS011;5268;49.346;9.522;2023-04-16T20:32:54;7.03;;;6.25;;
10440;SDS011;5268;49.346;9.522;2023-04-16T20:37:56;8.75;;;6.25;;
10440;SDS011;5268;49.346;9.522;2023-04-16T20:42:58;7.50;;;6.47;;
10440;SDS011;5268;49.346;9.522;2023-04-16T20:48:01;8.35;;;7.45;;
10440;SDS011;5268;49.346;9.522;2023-04-16T20:53:03;8.75;;;7.32;;
10440;SDS011;5268;49.346;9.522;2023-04-16T20:58:05;9.40;;;7.53;;
10440;SDS011;5268;49.346;9.522;2023-04-16T21:03:09;8.90;;;8.00;;
10440;SDS011;5268;49.346;9.522;2023-04-16T21:08:11;9.02;;;7.80;;
10440;SDS011;5268;49.346;9.522;2023-04-16T21:13:13;11.68;;;8.27;;
10440;SDS011;5268;49.346;9.522;2023-04-16T21:18:16;11.43;;;8.23;;
10440;SDS011;5268;49.346;9.522;2023-04-16T21:23:19;10.15;;;8.48;;
10440;SDS011;5268;49.346;9.522;2023-04-16T21:28:21;8.63;;;7.40;;
10440;SDS011;5268;49.346;9.522;2023-04-16T21:33:24;9.20;;;7.88;;
10440;SDS011;5268;49.346;9.522;2023-04-16T21:38:26;9.15;;;7.78;;
10440;SDS011;5268;49.346;9.522;2023-04-16T21:43:28;10.63;;;8.05;;
10440;SDS011;5268;49.346;9.522;2023-04-16T21:48:32;9.35;;;7.88;;
10440;SDS011;5268;49.346;9.522;2023-04-16T21:53:34;9.63;;;7.93;;
